Pincher Creek Airport
CZPC : now visible

Airfield :











YOU CAN JOIN US ON...

 
LOGIN :

Register | Disclaimer

   EN    FR    IT 

 









Legend :    VFR   Marginal VFR   IFR   Intensive IFR   Very Intensive IFR
Visi :
Ceiling :
>= 8 km
>= 3000ft
5 to 8 km
1000 to 3000 ft
1500m to 5 km
500 to 1000 ft
800 to 1500m
200 to 500 ft
< 800m
< 200 ft
Symbols :   Thunderstorms  Fog  Heavy snow  Heavy precipitations  Wind > 20 kt






- Airport Elevation : 3903 ft


CZPC - Pincher Creek

CURRENT METAR :
  • 040805Z AUTO 28020G30KT 8SM CLR M06/M11 A2999 RMK SLP218

EXPIRED METARs :
  • 040748Z AUTO 27032KT 2SM -SN CLR M06/M10 A2998 RMK SLP213
  • 040734Z AUTO 26027G34KT 3SM -SN CLR M06/M10 A2999 RMK SLP217
  • 040728Z AUTO 27029G34KT 2 1/2SM -SN CLR M05/M10 A2999 RMK VIS VRB 2-3 SLP216
  • 040702Z AUTO 28026G34KT 4SM -SN CLR M05/M10 A3000 RMK SLP220
  • 040658Z AUTO 27027G33KT 5SM HZ CLR M05/M11 A2999 RMK SLP218
  • 040630Z AUTO 27027G33KT 3SM -SN CLR M06/M11 A3000 RMK SLP226
  • 040602Z AUTO 27029G35KT 2 1/4SM -SN CLR M06/M10 A3001 RMK SLP226

TAF N/A
CZEG FIR / North America



MET'MAP, your aeronautical weather chart ! - Copyright ORBIFLY December 2007 - Disclaimer

ORBIFLY MET'MAP TEAM :

Programming & Development : Alexandra Zaïnal
Original concept : Baudouin d'Aumeries
Technical & hardware support : Manuel Goepfert
Assistance : Marc-Olivier Méhu




SOURCES & CREDITS :

   NOAA       Earth
Advisory